createdAt,value
2023-03-29T00:00:36.073Z,94981.44
2023-03-29T00:03:17.656Z,94994.56
2023-03-29T00:05:46.066Z,94991.19
2023-03-29T00:08:15.016Z,94984.13
2023-03-29T00:10:43.701Z,94979.50
2023-03-29T00:13:11.910Z,94976.72
2023-03-29T00:15:42.173Z,94979.03
2023-03-29T00:18:10.393Z,94974.25
2023-03-29T00:20:38.729Z,94973.22
2023-03-29T00:23:07.582Z,94975.13
2023-03-29T00:25:35.968Z,94968.81
2023-03-29T00:28:04.094Z,94983.53
2023-03-29T00:30:32.315Z,94969.19
2023-03-29T00:33:00.325Z,94990.63
2023-03-29T00:35:28.772Z,94984.91
2023-03-29T00:37:58.008Z,94973.09
2023-03-29T00:40:26.717Z,94974.81
2023-03-29T00:42:56.553Z,94967.47
2023-03-29T00:45:30.592Z,94968.22
2023-03-29T00:48:03.138Z,94966.13
2023-03-29T00:50:43.098Z,94973.19
2023-03-29T00:53:34.211Z,94962.75
2023-03-29T00:56:14.354Z,94975.00
2023-03-29T00:58:49.498Z,94971.06
2023-03-29T01:01:34.404Z,94948.44
2023-03-29T01:04:18.467Z,94946.03
2023-03-29T01:06:58.789Z,94956.84
2023-03-29T01:09:30.747Z,94958.06
2023-03-29T01:12:05.879Z,94957.00
2023-03-29T01:14:39.154Z,94951.78
2023-03-29T01:17:07.861Z,94955.28
2023-03-29T01:19:42.700Z,94957.50
2023-03-29T01:22:39.017Z,94960.09
2023-03-29T01:25:36.077Z,94950.03
2023-03-29T01:28:08.994Z,94951.06
2023-03-29T01:30:51.693Z,94946.75
2023-03-29T01:33:25.640Z,94946.19
2023-03-29T01:36:01.781Z,94944.91
2023-03-29T01:38:30.083Z,94947.47
2023-03-29T01:40:57.980Z,94938.09
2023-03-29T01:43:43.033Z,94947.53
2023-03-29T01:46:33.914Z,94954.63
2023-03-29T01:49:11.619Z,94950.16
2023-03-29T01:51:46.368Z,94952.34
2023-03-29T01:54:20.925Z,94938.66
2023-03-29T01:56:50.838Z,94948.22
2023-03-29T01:59:23.326Z,94947.41
2023-03-29T02:02:01.532Z,94958.84
2023-03-29T02:04:34.927Z,94953.31
2023-03-29T02:07:05.492Z,94948.38
2023-03-29T02:09:37.534Z,94935.69
2023-03-29T02:12:08.265Z,94936.63
2023-03-29T02:14:36.761Z,94947.88
2023-03-29T02:17:28.915Z,94936.97
2023-03-29T02:20:19.301Z,94953.88
2023-03-29T02:22:55.110Z,94931.44
2023-03-29T02:25:24.774Z,94940.34
2023-03-29T02:27:53.884Z,94957.06
2023-03-29T02:30:25.048Z,94959.97
2023-03-29T02:33:22.230Z,94959.00
2023-03-29T02:36:01.016Z,94958.50
2023-03-29T02:38:31.572Z,94951.56
2023-03-29T02:41:02.467Z,94952.47
2023-03-29T02:43:33.277Z,94948.00
2023-03-29T02:46:03.193Z,94928.69
2023-03-29T02:48:32.843Z,94924.66
2023-03-29T02:51:06.107Z,94929.56
2023-03-29T02:54:01.300Z,94933.00
2023-03-29T02:56:30.138Z,94947.47
2023-03-29T02:58:57.937Z,94935.16
2023-03-29T03:01:26.491Z,94944.06
2023-03-29T03:03:54.710Z,94929.63
2023-03-29T03:06:23.191Z,94935.47
2023-03-29T03:08:51.560Z,94925.28
2023-03-29T03:11:19.789Z,94925.16
2023-03-29T03:13:47.632Z,94933.13
2023-03-29T03:16:15.953Z,94932.66
2023-03-29T03:18:46.317Z,94917.13
2023-03-29T03:21:15.045Z,94932.03
2023-03-29T03:23:42.856Z,94928.16
2023-03-29T03:26:11.336Z,94930.00
2023-03-29T03:28:40.572Z,94935.19
2023-03-29T03:31:16.180Z,94930.72
2023-03-29T03:34:02.459Z,94925.13
2023-03-29T03:36:56.736Z,94925.72
2023-03-29T03:39:24.550Z,94922.31
2023-03-29T03:41:53.198Z,94921.53
2023-03-29T03:44:21.785Z,94925.19
2023-03-29T03:47:01.051Z,94922.72
2023-03-29T03:49:29.372Z,94914.72
2023-03-29T03:51:57.650Z,94915.16
2023-03-29T03:54:25.714Z,94912.13
2023-03-29T03:57:16.915Z,94904.63
2023-03-29T03:59:50.881Z,94881.97
2023-03-29T04:02:27.071Z,94896.75
2023-03-29T04:04:55.409Z,94906.63
2023-03-29T04:07:31.135Z,94904.44
2023-03-29T04:10:17.579Z,94921.38
2023-03-29T04:13:12.410Z,94912.19
2023-03-29T04:16:01.826Z,94916.28
2023-03-29T04:18:31.180Z,94898.13
2023-03-29T04:21:00.824Z,94897.28
2023-03-29T04:23:30.561Z,94904.59
2023-03-29T04:25:58.630Z,94893.91
2023-03-29T04:28:45.275Z,94876.66
2023-03-29T04:31:18.280Z,94888.72
2023-03-29T04:33:53.115Z,94894.25
2023-03-29T04:36:21.805Z,94884.78
2023-03-29T04:38:52.816Z,94881.22
2023-03-29T04:41:21.304Z,94880.84
2023-03-29T04:43:58.919Z,94874.03
2023-03-29T04:46:31.002Z,94871.84
2023-03-29T04:49:26.118Z,94879.69
2023-03-29T04:51:55.605Z,94882.34
2023-03-29T04:54:28.103Z,94879.97
2023-03-29T04:57:12.624Z,94877.50
2023-03-29T05:00:00.510Z,94875.00
2023-03-29T05:02:51.920Z,94866.66
2023-03-29T05:05:21.326Z,94854.22
2023-03-29T05:07:51.114Z,94856.38
2023-03-29T05:10:24.042Z,94857.16
2023-03-29T05:12:54.417Z,94868.63
2023-03-29T05:15:24.277Z,94862.03
2023-03-29T05:17:52.163Z,94857.50
2023-03-29T05:20:20.564Z,94837.31
2023-03-29T05:22:49.061Z,94852.22
2023-03-29T05:26:05.217Z,94855.53
2023-03-29T05:28:39.528Z,94860.72
2023-03-29T05:31:16.704Z,94862.03
2023-03-29T05:33:48.667Z,94858.63
2023-03-29T05:36:19.889Z,94857.00
2023-03-29T05:38:53.282Z,94844.06
2023-03-29T05:41:29.101Z,94849.63
2023-03-29T05:44:35.341Z,94844.56
2023-03-29T05:47:14.440Z,94839.34
2023-03-29T05:49:42.906Z,94837.41
2023-03-29T05:52:14.846Z,94833.66
2023-03-29T05:54:43.066Z,94819.59
2023-03-29T05:57:13.324Z,94818.00
2023-03-29T05:59:42.620Z,94815.09
2023-03-29T06:02:12.629Z,94813.13
2023-03-29T06:04:45.774Z,94802.59
2023-03-29T06:07:26.060Z,94787.19
2023-03-29T06:10:29.095Z,94796.03
2023-03-29T06:13:12.229Z,94802.00
2023-03-29T06:15:40.855Z,94795.16
2023-03-29T06:18:11.177Z,94787.13
2023-03-29T06:20:39.859Z,94793.28
2023-03-29T06:23:13.683Z,94793.03
2023-03-29T06:25:41.604Z,94794.88
2023-03-29T06:28:09.969Z,94777.47
2023-03-29T06:30:38.390Z,94755.19
2023-03-29T06:33:07.580Z,94777.56
2023-03-29T06:35:59.006Z,94777.59
2023-03-29T06:38:31.390Z,94784.00
2023-03-29T06:41:07.655Z,94775.88
2023-03-29T06:44:07.958Z,94772.66
2023-03-29T06:46:43.714Z,94773.41
2023-03-29T06:49:12.326Z,94767.13
2023-03-29T06:52:03.099Z,94743.34
2023-03-29T06:54:31.518Z,94732.75
2023-03-29T06:57:05.965Z,94743.72
2023-03-29T06:59:35.956Z,94737.38
2023-03-29T07:02:38.062Z,94713.81
2023-03-29T07:05:13.941Z,94719.72
2023-03-29T07:08:00.479Z,94701.72
2023-03-29T07:10:42.757Z,94687.47
2023-03-29T07:13:43.944Z,94692.53
2023-03-29T07:16:16.805Z,94689.47
2023-03-29T07:18:58.868Z,94692.47
2023-03-29T07:21:53.679Z,94687.38
2023-03-29T07:24:25.550Z,94686.81
2023-03-29T07:27:03.390Z,94682.00
2023-03-29T07:29:33.543Z,94672.03
2023-03-29T07:32:01.824Z,94674.78
2023-03-29T07:34:44.676Z,94653.66
2023-03-29T07:37:37.814Z,94641.13
2023-03-29T07:40:16.461Z,94647.44
2023-03-29T07:43:09.253Z,94639.50
2023-03-29T07:45:37.706Z,94648.81
2023-03-29T07:48:10.643Z,94631.75
2023-03-29T07:51:08.375Z,94628.53
2023-03-29T07:54:00.225Z,94634.56
2023-03-29T07:57:03.477Z,94635.50
2023-03-29T07:59:43.847Z,94633.59
2023-03-29T08:02:18.130Z,94636.34
2023-03-29T08:04:49.424Z,94635.78
2023-03-29T08:07:21.651Z,94597.53
2023-03-29T08:10:10.547Z,94606.28
2023-03-29T08:12:58.906Z,94615.50
2023-03-29T08:15:35.161Z,94591.06
2023-03-29T08:18:03.210Z,94607.47
2023-03-29T08:20:32.691Z,94601.41
2023-03-29T08:23:03.741Z,94594.81
2023-03-29T08:25:52.592Z,94588.03
2023-03-29T08:28:21.381Z,94585.38
2023-03-29T08:30:53.049Z,94584.63
2023-03-29T08:33:21.117Z,94583.31
2023-03-29T08:35:58.068Z,94584.34
2023-03-29T08:38:31.019Z,94575.41
2023-03-29T08:40:59.634Z,94584.84
2023-03-29T08:44:09.874Z,94579.03
2023-03-29T08:47:07.519Z,94575.03
2023-03-29T08:49:44.297Z,94563.84
2023-03-29T08:52:37.728Z,94570.97
2023-03-29T08:55:38.498Z,94574.31
2023-03-29T08:58:42.879Z,94571.63
2023-03-29T09:01:11.872Z,94568.81
2023-03-29T09:03:54.271Z,94549.94
2023-03-29T09:06:34.289Z,94542.91
2023-03-29T09:09:29.570Z,94537.06
2023-03-29T09:11:59.477Z,94544.97
2023-03-29T09:14:43.817Z,94540.53
2023-03-29T09:17:30.355Z,94532.22
2023-03-29T09:20:39.730Z,94525.50
2023-03-29T09:23:29.728Z,94526.47
2023-03-29T09:26:31.758Z,94533.72
2023-03-29T09:29:44.496Z,94518.50
2023-03-29T09:32:22.634Z,94511.16
2023-03-29T09:35:18.750Z,94497.09
2023-03-29T09:37:51.556Z,94502.72
2023-03-29T09:40:25.052Z,94496.31
2023-03-29T09:43:08.849Z,94489.50
2023-03-29T09:45:41.613Z,94487.66
2023-03-29T09:48:15.204Z,94481.72
2023-03-29T09:50:51.734Z,94474.25
2023-03-29T09:53:22.308Z,94464.75
2023-03-29T09:56:11.046Z,94460.09
2023-03-29T09:58:47.261Z,94455.75
2023-03-29T10:01:17.943Z,94463.97
2023-03-29T10:03:53.519Z,94453.69
2023-03-29T10:06:27.037Z,94443.59
2023-03-29T10:09:00.350Z,94441.94
2023-03-29T10:11:38.740Z,94454.09
2023-03-29T10:14:18.485Z,94461.97
2023-03-29T10:16:47.905Z,94446.75
2023-03-29T10:19:22.860Z,94436.31
2023-03-29T10:21:54.300Z,94425.50
2023-03-29T10:24:24.619Z,94431.22
2023-03-29T10:26:56.174Z,94420.34
2023-03-29T10:29:26.476Z,94412.81
2023-03-29T10:31:55.512Z,94407.38
2023-03-29T10:34:26.373Z,94396.94
2023-03-29T10:37:03.598Z,94383.22
2023-03-29T10:39:34.872Z,94390.31
2023-03-29T10:42:04.715Z,94390.31
2023-03-29T10:44:36.880Z,94380.56
2023-03-29T10:47:17.108Z,94372.66
2023-03-29T10:49:51.009Z,94378.69
2023-03-29T10:52:19.399Z,94371.53
2023-03-29T10:54:49.901Z,94343.69
2023-03-29T10:57:34.375Z,94347.78
2023-03-29T11:00:19.010Z,94353.22
2023-03-29T11:03:05.923Z,94343.13
2023-03-29T11:05:47.009Z,94323.56
2023-03-29T11:08:24.028Z,94334.81
2023-03-29T11:11:10.920Z,94346.09
2023-03-29T11:13:45.452Z,94344.78
2023-03-29T11:16:24.984Z,94324.38
2023-03-29T11:19:07.730Z,94311.19
2023-03-29T11:21:56.896Z,94292.75
2023-03-29T11:25:03.289Z,94300.47
2023-03-29T11:27:43.104Z,94286.31
2023-03-29T11:30:22.612Z,94288.03
2023-03-29T11:33:25.418Z,94285.41
2023-03-29T11:35:56.745Z,94287.53
2023-03-29T11:38:37.425Z,94280.56
2023-03-29T11:41:18.958Z,94284.09
2023-03-29T11:43:55.231Z,94290.84
2023-03-29T11:46:28.741Z,94293.50
2023-03-29T11:49:10.694Z,94296.88
2023-03-29T11:51:45.272Z,94297.63
2023-03-29T11:54:19.315Z,94308.69
2023-03-29T11:57:07.639Z,94312.44
2023-03-29T11:59:54.506Z,94320.38
2023-03-29T12:02:34.002Z,94328.81
2023-03-29T12:05:11.268Z,94303.06
2023-03-29T12:07:50.865Z,94308.44
2023-03-29T12:10:31.238Z,94313.16
2023-03-29T12:13:31.375Z,94303.22
2023-03-29T12:16:26.793Z,94261.16
2023-03-29T12:18:58.481Z,94265.34
2023-03-29T12:21:30.650Z,94256.13
2023-03-29T12:23:59.603Z,94254.63
2023-03-29T12:26:47.030Z,94260.84
2023-03-29T12:29:29.784Z,94269.91
2023-03-29T12:31:57.962Z,94276.25
2023-03-29T12:35:04.716Z,94276.56
2023-03-29T12:38:22.730Z,94287.63
2023-03-29T12:41:21.997Z,94287.78
2023-03-29T12:44:28.791Z,94287.72
2023-03-29T12:47:02.341Z,94281.66
2023-03-29T12:49:34.821Z,94281.13
2023-03-29T12:52:08.812Z,94284.28
2023-03-29T12:54:37.263Z,94275.78
2023-03-29T12:57:27.703Z,94295.13
2023-03-29T12:59:56.737Z,94292.81
2023-03-29T13:02:36.499Z,94276.25
2023-03-29T13:05:05.930Z,94271.41
2023-03-29T13:07:47.529Z,94256.00
2023-03-29T13:10:55.466Z,94245.84
2023-03-29T13:13:44.247Z,94233.31
2023-03-29T13:16:16.609Z,94233.91
2023-03-29T13:19:08.710Z,94227.50
2023-03-29T13:22:08.078Z,94223.75
2023-03-29T13:25:06.474Z,94235.00
2023-03-29T13:27:53.122Z,94237.00
2023-03-29T13:30:24.389Z,94226.78
2023-03-29T13:33:27.174Z,94221.72
2023-03-29T13:36:06.192Z,94213.00
2023-03-29T13:38:46.603Z,94238.00
2023-03-29T13:41:48.693Z,94252.47
2023-03-29T13:44:27.980Z,94234.28
2023-03-29T13:47:16.800Z,94215.88
2023-03-29T13:49:56.701Z,94219.13
2023-03-29T13:52:48.684Z,94221.38
2023-03-29T13:55:33.654Z,94186.50
2023-03-29T13:58:24.457Z,94183.31
2023-03-29T14:01:18.062Z,94169.22
2023-03-29T14:03:48.946Z,94158.72
2023-03-29T14:06:24.423Z,94154.19
2023-03-29T14:08:53.479Z,94192.66
2023-03-29T14:11:25.758Z,94201.78
2023-03-29T14:13:55.932Z,94247.50
2023-03-29T14:16:28.970Z,94262.63
2023-03-29T14:19:00.655Z,94280.06
2023-03-29T14:21:29.709Z,94313.25
2023-03-29T14:24:02.555Z,94307.78
2023-03-29T14:26:34.215Z,94312.44
2023-03-29T14:29:03.546Z,94308.03
2023-03-29T14:31:38.072Z,94290.13
2023-03-29T14:34:13.554Z,94288.59
2023-03-29T14:36:45.365Z,94306.38
2023-03-29T14:39:18.539Z,94327.97
2023-03-29T14:41:51.937Z,94345.69
2023-03-29T14:44:26.322Z,94346.09
2023-03-29T14:46:56.816Z,94350.63
2023-03-29T14:49:25.915Z,94358.44
2023-03-29T14:51:55.459Z,94364.75
2023-03-29T14:54:33.669Z,94400.63
2023-03-29T14:57:07.447Z,94407.31
2023-03-29T14:59:35.552Z,94408.41
2023-03-29T15:02:04.933Z,94408.16
2023-03-29T15:04:34.632Z,94409.34
2023-03-29T15:07:05.342Z,94392.78
2023-03-29T15:09:35.243Z,94389.97
2023-03-29T15:12:04.326Z,94394.13
2023-03-29T15:14:34.664Z,94363.16
2023-03-29T15:17:23.165Z,94363.97
2023-03-29T15:20:10.128Z,94352.94
2023-03-29T15:22:40.306Z,94354.44
2023-03-29T15:25:17.522Z,94375.22
2023-03-29T15:27:50.781Z,94359.91
2023-03-29T15:30:19.450Z,94365.75
2023-03-29T15:32:47.668Z,94357.59
2023-03-29T15:35:24.828Z,94362.84
2023-03-29T15:37:53.639Z,94376.22
2023-03-29T15:40:26.781Z,94376.66
2023-03-29T15:42:55.897Z,94347.22
2023-03-29T15:45:23.844Z,94359.03
2023-03-29T15:47:52.219Z,94360.09
2023-03-29T15:50:20.673Z,94368.41
2023-03-29T15:52:49.616Z,94373.50
2023-03-29T15:55:18.823Z,94374.72
2023-03-29T15:57:49.172Z,94369.22
2023-03-29T16:00:21.484Z,94368.19
2023-03-29T16:02:51.098Z,94377.38
2023-03-29T16:05:20.135Z,94368.97
2023-03-29T16:07:48.551Z,94371.44
2023-03-29T16:10:16.906Z,94362.34
2023-03-29T16:12:45.146Z,94378.84
2023-03-29T16:15:18.827Z,94386.41
2023-03-29T16:17:47.651Z,94400.22
2023-03-29T16:20:20.526Z,94422.00
2023-03-29T16:22:49.703Z,94445.66
2023-03-29T16:25:23.089Z,94452.47
2023-03-29T16:27:54.015Z,94449.44
2023-03-29T16:30:21.906Z,94429.09
2023-03-29T16:32:50.210Z,94436.19
2023-03-29T16:35:38.681Z,94435.69
2023-03-29T16:38:08.044Z,94429.88
2023-03-29T16:40:36.937Z,94427.91
2023-03-29T16:43:05.216Z,94435.06
2023-03-29T16:45:33.561Z,94461.88
2023-03-29T16:48:01.939Z,94454.03
2023-03-29T16:50:30.437Z,94453.53
2023-03-29T16:52:58.678Z,94460.41
2023-03-29T16:55:26.536Z,94477.69
2023-03-29T16:57:54.800Z,94470.56
2023-03-29T17:00:23.474Z,94474.88
2023-03-29T17:02:51.681Z,94480.69
2023-03-29T17:05:19.794Z,94502.50
2023-03-29T17:07:48.107Z,94503.78
2023-03-29T17:10:15.923Z,94498.22
2023-03-29T17:12:44.632Z,94501.28
2023-03-29T17:15:12.501Z,94501.53
2023-03-29T17:17:41.426Z,94509.13
2023-03-29T17:20:12.708Z,94499.50
2023-03-29T17:22:41.412Z,94505.06
2023-03-29T17:25:10.329Z,94512.69
2023-03-29T17:27:38.532Z,94509.38
2023-03-29T17:30:07.399Z,94525.09
2023-03-29T17:32:36.757Z,94530.44
2023-03-29T17:35:05.166Z,94534.47
2023-03-29T17:37:33.646Z,94531.44
2023-03-29T17:40:01.451Z,94525.13
2023-03-29T17:42:31.210Z,94541.06
2023-03-29T17:44:59.150Z,94541.06
2023-03-29T17:47:27.538Z,94535.75
2023-03-29T17:49:55.755Z,94537.00
2023-03-29T17:52:25.678Z,94539.25
2023-03-29T17:54:54.165Z,94524.22
2023-03-29T17:57:22.712Z,94527.97
2023-03-29T17:59:50.904Z,94509.22
2023-03-29T18:02:23.288Z,94506.59
2023-03-29T18:04:52.473Z,94533.31
2023-03-29T18:07:20.692Z,94539.69
2023-03-29T18:09:48.718Z,94554.53
2023-03-29T18:12:19.114Z,94533.56
2023-03-29T18:14:49.780Z,94542.94
2023-03-29T18:17:18.109Z,94544.41
2023-03-29T18:19:48.880Z,94523.44
2023-03-29T18:22:20.147Z,94532.56
2023-03-29T18:24:49.505Z,94536.69
2023-03-29T18:27:18.731Z,94548.06
2023-03-29T18:29:46.602Z,94561.28
2023-03-29T18:32:15.360Z,94565.78
2023-03-29T18:34:43.425Z,94574.84
2023-03-29T18:37:17.753Z,94575.09
2023-03-29T18:39:48.218Z,94584.84
2023-03-29T18:42:16.669Z,94568.81
2023-03-29T18:44:44.796Z,94577.72
2023-03-29T18:47:13.560Z,94581.78
2023-03-29T18:49:42.170Z,94608.06
2023-03-29T18:52:10.440Z,94591.81
2023-03-29T18:54:38.962Z,94595.06
2023-03-29T18:57:08.395Z,94598.00
2023-03-29T18:59:36.930Z,94612.94
2023-03-29T19:02:05.134Z,94610.81
2023-03-29T19:04:35.721Z,94602.28
2023-03-29T19:07:03.992Z,94593.97
2023-03-29T19:09:32.114Z,94609.72
2023-03-29T19:12:00.727Z,94610.56
2023-03-29T19:14:31.393Z,94642.63
2023-03-29T19:17:01.004Z,94625.78
2023-03-29T19:19:28.923Z,94610.97
2023-03-29T19:22:00.409Z,94622.06
2023-03-29T19:24:30.237Z,94617.34
2023-03-29T19:26:58.803Z,94636.47
2023-03-29T19:29:26.683Z,94644.56
2023-03-29T19:31:57.423Z,94625.63
2023-03-29T19:34:25.397Z,94636.47
2023-03-29T19:36:55.412Z,94644.22
2023-03-29T19:39:23.494Z,94639.44
2023-03-29T19:41:51.814Z,94649.50
2023-03-29T19:44:20.456Z,94654.75
2023-03-29T19:46:50.626Z,94630.41
2023-03-29T19:49:19.051Z,94641.53
2023-03-29T19:51:48.383Z,94641.06
2023-03-29T19:54:17.579Z,94658.13
2023-03-29T19:56:46.748Z,94691.13
2023-03-29T19:59:15.198Z,94684.75
2023-03-29T20:01:51.078Z,94661.63
2023-03-29T20:04:21.201Z,94697.56
2023-03-29T20:06:49.657Z,94676.66
2023-03-29T20:09:17.738Z,94675.31
2023-03-29T20:11:55.675Z,94676.72
2023-03-29T20:14:27.499Z,94693.00
2023-03-29T20:17:05.015Z,94671.53
2023-03-29T20:19:36.832Z,94701.16
2023-03-29T20:22:05.547Z,94728.69
2023-03-29T20:24:34.958Z,94705.69
2023-03-29T20:27:04.754Z,94694.16
2023-03-29T20:29:33.591Z,94712.66
2023-03-29T20:32:02.047Z,94699.63
2023-03-29T20:34:30.411Z,94691.78
2023-03-29T20:37:01.097Z,94721.28
2023-03-29T20:39:31.693Z,94707.72
2023-03-29T20:42:00.907Z,94726.25
2023-03-29T20:44:29.622Z,94712.88
2023-03-29T20:47:05.243Z,94713.59
2023-03-29T20:49:38.770Z,94732.91
2023-03-29T20:52:15.672Z,94711.38
2023-03-29T20:54:45.491Z,94726.19
2023-03-29T20:57:19.158Z,94729.72
2023-03-29T20:59:49.550Z,94787.06
2023-03-29T21:02:21.682Z,94716.53
2023-03-29T21:04:52.096Z,94714.25
2023-03-29T21:07:22.029Z,94745.06
2023-03-29T21:09:50.646Z,94745.16
2023-03-29T21:12:21.044Z,94721.84
2023-03-29T21:14:49.082Z,94760.22
2023-03-29T21:17:17.513Z,94749.47
2023-03-29T21:19:45.523Z,94723.22
2023-03-29T21:22:14.213Z,94715.72
2023-03-29T21:24:42.089Z,94721.06
2023-03-29T21:27:10.222Z,94745.88
2023-03-29T21:29:38.063Z,94762.91
2023-03-29T21:32:06.716Z,94778.03
2023-03-29T21:34:34.788Z,94756.22
2023-03-29T21:37:04.027Z,94792.94
2023-03-29T21:39:33.178Z,94764.91
2023-03-29T21:42:01.910Z,94818.59
2023-03-29T21:44:31.431Z,94763.00
2023-03-29T21:47:01.263Z,94766.25
2023-03-29T21:49:29.234Z,94812.03
2023-03-29T21:51:57.848Z,94804.50
2023-03-29T21:54:26.034Z,94810.78
2023-03-29T21:56:55.837Z,94813.56
2023-03-29T21:59:23.849Z,94841.34
2023-03-29T22:01:53.272Z,94848.69
2023-03-29T22:04:33.549Z,94853.75
2023-03-29T22:07:05.807Z,94833.38
2023-03-29T22:09:35.463Z,94852.69
2023-03-29T22:12:05.092Z,94882.91
2023-03-29T22:14:37.212Z,94850.53
2023-03-29T22:17:06.664Z,94907.59
2023-03-29T22:19:42.096Z,94890.72
2023-03-29T22:22:14.123Z,94874.59
2023-03-29T22:24:42.598Z,94874.63
2023-03-29T22:27:11.972Z,94860.66
2023-03-29T22:29:40.097Z,94903.66
2023-03-29T22:32:11.793Z,94885.44
2023-03-29T22:34:40.024Z,94871.94
2023-03-29T22:37:09.237Z,94902.94
2023-03-29T22:39:38.708Z,94914.00
2023-03-29T22:42:07.522Z,94941.19
2023-03-29T22:44:35.698Z,94948.78
2023-03-29T22:47:04.033Z,94944.44
2023-03-29T22:49:32.112Z,94929.75
2023-03-29T22:52:01.694Z,94960.22
2023-03-29T22:54:30.033Z,94982.81
2023-03-29T22:56:59.568Z,94984.22
2023-03-29T22:59:28.097Z,95063.16
2023-03-29T23:01:56.682Z,95013.47
2023-03-29T23:04:24.673Z,95014.22
2023-03-29T23:06:53.520Z,94994.78
2023-03-29T23:09:21.543Z,94982.78
2023-03-29T23:11:49.695Z,94993.34
2023-03-29T23:14:19.223Z,95005.97
2023-03-29T23:16:48.142Z,94982.47
2023-03-29T23:19:16.459Z,94990.34
2023-03-29T23:21:45.097Z,94996.22
2023-03-29T23:24:13.653Z,94984.72
2023-03-29T23:26:42.392Z,94983.97
2023-03-29T23:29:10.325Z,94979.03
2023-03-29T23:31:38.934Z,94965.56
2023-03-29T23:34:11.508Z,94971.91
2023-03-29T23:36:39.795Z,94960.56
2023-03-29T23:39:09.138Z,94968.47
2023-03-29T23:41:40.578Z,94964.69
2023-03-29T23:44:08.803Z,94945.25
2023-03-29T23:46:37.502Z,94951.31
2023-03-29T23:49:05.420Z,94969.56
2023-03-29T23:51:35.238Z,94935.16
2023-03-29T23:54:03.800Z,94985.72
2023-03-29T23:56:32.257Z,94985.25
2023-03-29T23:59:00.575Z,94962.34
